
Distance (Route):
Temperature : 0°C
Humidity : 0%
Pressure : 0hPa| Receiver | Date | Latitude | Longitude | Direction | Speed | Altitude | Climb | Temperature | Humidity | Pressure | Voltage | Killtimer | Uptime | BKT | XDATA |
|---|---|---|---|---|---|---|---|---|---|---|---|---|---|---|---|
| DB0UT-7 | 2026-09-01 08:23:30 | 47.17531 | 4.53785 | 98° | 38km/h | 4036m | -1.8m/s | 0°C | 0% | 0hPa | 0V | 00:00:00 | 00:00:00 | 00:00:00 | |
| DB0UT-7 | 2026-09-01 08:22:59 | 47.17566 | 4.53365 | 96° | 38km/h | 4095m | -1.8m/s | 0°C | 0% | 0hPa | 0V | 00:00:00 | 00:00:00 | 00:00:00 | |
| DB0UT-7 | 2026-09-01 08:21:58 | 47.17600 | 4.52492 | 92° | 38km/h | 4214m | -2.1m/s | 0°C | 0% | 0hPa | 0V | 00:00:00 | 00:00:00 | 00:00:00 | |
| DB0UT-7 | 2026-09-01 08:21:28 | 47.17611 | 4.52068 | 91° | 40km/h | 4274m | -2.0m/s | 0°C | 0% | 0hPa | 0V | 00:00:00 | 00:00:00 | 00:00:00 | |
| DB0UT-7 | 2026-09-01 08:20:58 | 47.17614 | 4.51627 | 91° | 40km/h | 4335m | -2.0m/s | 0°C | 0% | 0hPa | 0V | 00:00:00 | 00:00:00 | 00:00:00 | |
| DB0UT-7 | 2026-09-01 08:20:27 | 47.17626 | 4.51160 | 94° | 40km/h | 4396m | -1.9m/s | 0°C | 0% | 0hPa | 0V | 00:00:00 | 00:00:00 | 00:00:00 | |
| DB0UT-7 | 2026-09-01 08:19:57 | 47.17637 | 4.50706 | 90° | 44km/h | 4455m | -2.0m/s | 0°C | 0% | 0hPa | 0V | 00:00:00 | 00:00:00 | 00:00:00 | |
| DB0UT-7 | 2026-09-01 08:19:27 | 47.17636 | 4.50225 | 91° | 46km/h | 4516m | -2.0m/s | 0°C | 0% | 0hPa | 0V | 00:00:00 | 00:00:00 | 00:00:00 | |
| DB0UT-7 | 2026-09-01 08:18:57 | 47.17629 | 4.49706 | 87° | 47km/h | 4575m | -2.0m/s | 0°C | 0% | 0hPa | 0V | 00:00:00 | 00:00:00 | 00:00:00 | |
| DB0UT-7 | 2026-09-01 08:18:27 | 47.17619 | 4.49174 | 88° | 49km/h | 4634m | -1.8m/s | 0°C | 0% | 0hPa | 0V | 00:00:00 | 00:00:00 | 00:00:00 | |
| DB0UT-7 | 2026-09-01 08:17:57 | 47.17602 | 4.48625 | 88° | 49km/h | 4695m | -2.1m/s | 0°C | 0% | 0hPa | 0V | 00:00:00 | 00:00:00 | 00:00:00 | |
| DB0UT-7 | 2026-09-01 08:17:27 | 47.17573 | 4.48074 | 86° | 49km/h | 4755m | -2.0m/s | 0°C | 0% | 0hPa | 0V | 00:00:00 | 00:00:00 | 00:00:00 | |
| DB0ND-19 | 2026-09-01 08:17:02 | 47.17543 | 4.47616 | 85° | 49km/h | 4805m | -2.0m/s | -5.8°C | -1.0% | -1.0hPa | 0V | 00:00:00 | 00:00:00 | 00:00:00 | |
| DB0UT-7 | 2026-09-01 08:16:57 | 47.17537 | 4.47523 | 84° | 51km/h | 4818m | -2.0m/s | 0°C | 0% | 0hPa | 0V | 00:00:00 | 00:00:00 | 00:00:00 | |
| DB0UT-7 | 2026-09-01 08:16:27 | 47.17477 | 4.46952 | 81° | 55km/h | 4879m | -2.0m/s | 0°C | 0% | 0hPa | 0V | 00:00:00 | 00:00:00 | 00:00:00 | |
| DB0UT-7 | 2026-09-01 08:15:57 | 47.17401 | 4.46357 | 80° | 55km/h | 4944m | -2.0m/s | 0°C | 0% | 0hPa | 0V | 00:00:00 | 00:00:00 | 00:00:00 | |
| DB0UT-7 | 2026-09-01 08:15:27 | 47.17334 | 4.45757 | 82° | 55km/h | 5007m | -2.0m/s | 0°C | 0% | 0hPa | 0V | 00:00:00 | 00:00:00 | 00:00:00 | |
| DB0UT-7 | 2026-09-01 08:14:56 | 47.17273 | 4.45126 | 83° | 55km/h | 5077m | -2.1m/s | 0°C | 0% | 0hPa | 0V | 00:00:00 | 00:00:00 | 00:00:00 | |
| DB0UT-7 | 2026-09-01 08:14:26 | 47.17213 | 4.44517 | 83° | 57km/h | 5144m | -2.2m/s | 0°C | 0% | 0hPa | 0V | 00:00:00 | 00:00:00 | 00:00:00 | |
| DB0ND-19 | 2026-09-01 08:13:56 | 47.17157 | 4.43862 | 83° | 53km/h | 5212m | -2.2m/s | -8.9°C | -1.0% | -1.0hPa | 0V | 00:00:00 | 00:00:00 | 00:00:00 | |
| DB0UT-7 | 2026-09-01 08:13:18 | 47.17103 | 4.43123 | 85° | 55km/h | 5300m | -2.4m/s | 0°C | 0% | 0hPa | 0V | 00:00:00 | 00:00:00 | 00:00:00 | |
| DB0UT-7 | 2026-09-01 08:12:48 | 47.17059 | 4.42517 | 83° | 57km/h | 5372m | -2.3m/s | 0°C | 0% | 0hPa | 0V | 00:00:00 | 00:00:00 | 00:00:00 | |
| DB0ND-19 | 2026-09-01 08:12:23 | 47.17023 | 4.41997 | 86° | 57km/h | 5429m | -2.4m/s | -10.3°C | -1.0% | -1.0hPa | 0V | 00:00:00 | 00:00:00 | 00:00:00 | |
| DB0ND-19 | 2026-09-01 08:11:52 | 47.16999 | 4.41334 | 87° | 58km/h | 5502m | -2.1m/s | -10.8°C | -1.0% | -1.0hPa | 0V | 00:00:00 | 00:00:00 | 00:00:00 | |
| DB0UT-7 | 2026-09-01 08:11:09 | 47.16975 | 4.40377 | 89° | 64km/h | 5610m | -2.2m/s | 0°C | 0% | 0hPa | 0V | 00:00:00 | 00:00:00 | 00:00:00 | |
| DB0ND-19 | 2026-09-01 08:10:50 | 47.16974 | 4.39901 | 91° | 64km/h | 5646m | -2.1m/s | -11.9°C | -1.0% | -1.0hPa | 0V | 00:00:00 | 00:00:00 | 00:00:00 | |
| DB0UT-7 | 2026-09-01 08:10:14 | 47.17002 | 4.39055 | 94° | 64km/h | 5727m | -2.2m/s | 0°C | 0% | 0hPa | 0V | 00:00:00 | 00:00:00 | 00:00:00 | |
| DB0UT-7 | 2026-09-01 08:09:44 | 47.17025 | 4.38350 | 91° | 62km/h | 5794m | -2.2m/s | 0°C | 0% | 0hPa | 0V | 00:00:00 | 00:00:00 | 00:00:00 | |
| DB0UT-7 | 2026-09-01 08:09:14 | 47.17043 | 4.37659 | 93° | 62km/h | 5862m | -2.1m/s | 0°C | 0% | 0hPa | 0V | 00:00:00 | 00:00:00 | 00:00:00 | |
| DB0UT-7 | 2026-09-01 08:08:44 | 47.17067 | 4.36976 | 95° | 62km/h | 5931m | -2.3m/s | 0°C | 0% | 0hPa | 0V | 00:00:00 | 00:00:00 | 00:00:00 | |
| DB0UT-7 | 2026-09-01 08:08:14 | 47.17093 | 4.36281 | 93° | 64km/h | 5998m | -2.4m/s | 0°C | 0% | 0hPa | 0V | 00:00:00 | 00:00:00 | 00:00:00 | |
| DB0UT-7 | 2026-09-01 08:07:44 | 47.17119 | 4.35569 | 94° | 64km/h | 6065m | -2.3m/s | 0°C | 0% | 0hPa | 0V | 00:00:00 | 00:00:00 | 00:00:00 | |
| DB0UT-7 | 2026-09-01 08:07:14 | 47.17145 | 4.34852 | 94° | 64km/h | 6137m | -2.1m/s | 0°C | 0% | 0hPa | 0V | 00:00:00 | 00:00:00 | 00:00:00 | |
| DB0ND-19 | 2026-09-01 08:07:13 | 47.17147 | 4.34805 | 93° | 64km/h | 6137m | -2.1m/s | -15.6°C | -1.0% | -1.0hPa | 0V | 00:00:00 | 00:00:00 | 00:00:00 | |
| DB0UT-7 | 2026-09-01 08:06:43 | 47.17167 | 4.34116 | 92° | 64km/h | 6205m | -2.2m/s | 0°C | 0% | 0hPa | 0V | 00:00:00 | 00:00:00 | 00:00:00 | |
| DB0ND-19 | 2026-09-01 08:06:42 | 47.17168 | 4.34069 | 92° | 64km/h | 6207m | -2.1m/s | -16.2°C | -1.0% | -1.0hPa | 0V | 00:00:00 | 00:00:00 | 00:00:00 | |
| DB0UT-7 | 2026-09-01 08:06:13 | 47.17172 | 4.33397 | 90° | 66km/h | 6272m | -2.2m/s | 0°C | 0% | 0hPa | 0V | 00:00:00 | 00:00:00 | 00:00:00 | |
| DB0ND-19 | 2026-09-01 08:06:11 | 47.17172 | 4.33298 | 89° | 66km/h | 6279m | -2.2m/s | -16.8°C | -1.0% | -1.0hPa | 0V | 00:00:00 | 00:00:00 | 00:00:00 | |
| DB0UT-7 | 2026-09-01 08:05:43 | 47.17171 | 4.32661 | 89° | 68km/h | 6340m | -2.2m/s | 0°C | 0% | 0hPa | 0V | 00:00:00 | 00:00:00 | 00:00:00 | |
| DB0ND-19 | 2026-09-01 08:05:40 | 47.17170 | 4.32565 | 89° | 64km/h | 6346m | -2.7m/s | -17.2°C | -1.0% | -1.0hPa | 0V | 00:00:00 | 00:00:00 | 00:00:00 | |
| DB0UT-7 | 2026-09-01 08:05:13 | 47.17154 | 4.31911 | 86° | 69km/h | 6404m | -2.1m/s | 0°C | 0% | 0hPa | 0V | 00:00:00 | 00:00:00 | 00:00:00 | |
| DB0ND-19 | 2026-09-01 08:05:09 | 47.17148 | 4.31783 | 85° | 68km/h | 6414m | -2.1m/s | -17.6°C | -1.0% | -1.0hPa | 0V | 00:00:00 | 00:00:00 | 00:00:00 | |
| DB0UT-7 | 2026-09-01 08:04:43 | 47.17110 | 4.31144 | 86° | 71km/h | 6469m | -2.0m/s | 0°C | 0% | 0hPa | 0V | 00:00:00 | 00:00:00 | 00:00:00 | |
| DB0ND-19 | 2026-09-01 08:04:38 | 47.17101 | 4.30989 | 84° | 68km/h | 6480m | -2.0m/s | -18.0°C | -1.0% | -1.0hPa | 0V | 00:00:00 | 00:00:00 | 00:00:00 | |
| DB0UT-7 | 2026-09-01 08:04:13 | 47.17067 | 4.30361 | 87° | 73km/h | 6532m | -2.1m/s | 0°C | 0% | 0hPa | 0V | 00:00:00 | 00:00:00 | 00:00:00 | |
| DB0ND-19 | 2026-09-01 08:04:07 | 47.17060 | 4.30174 | 87° | 73km/h | 6543m | -1.9m/s | -18.4°C | -1.0% | -1.0hPa | 0V | 00:00:00 | 00:00:00 | 00:00:00 | |
| DB0UT-7 | 2026-09-01 08:03:43 | 47.17040 | 4.29555 | 87° | 71km/h | 6596m | -2.1m/s | 0°C | 0% | 0hPa | 0V | 00:00:00 | 00:00:00 | 00:00:00 | |
| DB0ND-19 | 2026-09-01 08:03:36 | 47.17034 | 4.29343 | 89° | 69km/h | 6611m | -2.1m/s | -18.7°C | -1.0% | -1.0hPa | 0V | 00:00:00 | 00:00:00 | 00:00:00 | |
| DB0UT-7 | 2026-09-01 08:03:13 | 47.17021 | 4.28761 | 89° | 71km/h | 6660m | -2.0m/s | 0°C | 0% | 0hPa | 0V | 00:00:00 | 00:00:00 | 00:00:00 | |
| DB0ND-19 | 2026-09-01 08:03:05 | 47.17018 | 4.28526 | 88° | 69km/h | 6678m | -2.0m/s | -19.2°C | -1.0% | -1.0hPa | 0V | 00:00:00 | 00:00:00 | 00:00:00 | |
| DB0UT-7 | 2026-09-01 08:02:43 | 47.17018 | 4.27968 | 91° | 73km/h | 6726m | -2.1m/s | 0°C | 0% | 0hPa | 0V | 00:00:00 | 00:00:00 | 00:00:00 | |
| DB0ND-19 | 2026-09-01 08:02:34 | 47.17021 | 4.27700 | 90° | 71km/h | 6745m | -2.4m/s | -19.6°C | -1.0% | -1.0hPa | 0V | 00:00:00 | 00:00:00 | 00:00:00 | |
| DB0UT-7 | 2026-09-01 08:02:13 | 47.17034 | 4.27159 | 93° | 75km/h | 6794m | -2.2m/s | 0°C | 0% | 0hPa | 0V | 00:00:00 | 00:00:00 | 00:00:00 | |
| DB0ND-19 | 2026-09-01 08:02:02 | 47.17041 | 4.26832 | 91° | 73km/h | 6817m | -2.1m/s | -20.1°C | -1.0% | -1.0hPa | 0V | 00:00:00 | 00:00:00 | 00:00:00 | |
| DB0UT-7 | 2026-09-01 08:01:43 | 47.17048 | 4.26332 | 92° | 77km/h | 6860m | -2.2m/s | 0°C | 0% | 0hPa | 0V | 00:00:00 | 00:00:00 | 00:00:00 | |
| DB0UT-7 | 2026-09-01 08:01:13 | 47.17060 | 4.25481 | 92° | 77km/h | 6929m | -2.4m/s | 0°C | 0% | 0hPa | 0V | 00:00:00 | 00:00:00 | 00:00:00 | |
| DB0UT-7 | 2026-09-01 08:00:43 | 47.17065 | 4.24634 | 87° | 75km/h | 6998m | -2.2m/s | 0°C | 0% | 0hPa | 0V | 00:00:00 | 00:00:00 | 00:00:00 | |
| DB0ND-19 | 2026-09-01 08:00:29 | 47.17053 | 4.24241 | 86° | 75km/h | 7027m | -2.1m/s | -21.4°C | -1.0% | -1.0hPa | 0V | 00:00:00 | 00:00:00 | 00:00:00 | |
| DB0ND-19 | 2026-09-01 07:59:58 | 47.17006 | 4.23340 | 83° | 75km/h | 7100m | -2.3m/s | -21.6°C | -1.0% | -1.0hPa | 0V | 00:00:00 | 00:00:00 | 00:00:00 | |
| DB0UT-7 | 2026-09-01 07:59:30 | 47.16949 | 4.22584 | 85° | 77km/h | 7165m | -1.9m/s | 0°C | 0% | 0hPa | 0V | 00:00:00 | 00:00:00 | 00:00:00 | |
| DB0ND-19 | 2026-09-01 07:59:27 | 47.16942 | 4.22471 | 83° | 77km/h | 7171m | -2.2m/s | -22.0°C | -1.0% | -1.0hPa | 0V | 00:00:00 | 00:00:00 | 00:00:00 | |
| DB0UT-7 | 2026-09-01 07:59:00 | 47.16889 | 4.21738 | 84° | 73km/h | 7235m | -2.3m/s | 0°C | 0% | 0hPa | 0V | 00:00:00 | 00:00:00 | 00:00:00 | |
| DB0ND-19 | 2026-09-01 07:58:56 | 47.16879 | 4.21599 | 84° | 75km/h | 7244m | -2.4m/s | -22.6°C | -1.0% | -1.0hPa | 0V | 00:00:00 | 00:00:00 | 00:00:00 | |
| DB0ND-19 | 2026-09-01 07:58:25 | 47.16802 | 4.20767 | 80° | 69km/h | 7318m | -2.4m/s | -23.1°C | -1.0% | -1.0hPa | 0V | 00:00:00 | 00:00:00 | 00:00:00 | |
| DB0ND-19 | 2026-09-01 07:57:54 | 47.16703 | 4.19983 | 80° | 68km/h | 7394m | -2.4m/s | -23.2°C | -1.0% | -1.0hPa | 0V | 00:00:00 | 00:00:00 | 00:00:00 | |
| DB0ND-19 | 2026-09-01 07:57:23 | 47.16593 | 4.19180 | 80° | 69km/h | 7474m | -2.4m/s | -23.5°C | -1.0% | -1.0hPa | 0V | 00:00:00 | 00:00:00 | 00:00:00 | |
| DB0ND-19 | 2026-09-01 07:56:52 | 47.16511 | 4.18408 | 81° | 69km/h | 7553m | -2.5m/s | -24.0°C | -1.0% | -1.0hPa | 0V | 00:00:00 | 00:00:00 | 00:00:00 | |
| DB0ND-19 | 2026-09-01 07:56:21 | 47.16431 | 4.17587 | 81° | 71km/h | 7636m | -2.5m/s | -24.7°C | -1.0% | -1.0hPa | 0V | 00:00:00 | 00:00:00 | 00:00:00 | |
| DB0ND-19 | 2026-09-01 07:55:50 | 47.16339 | 4.16776 | 79° | 69km/h | 7716m | -2.5m/s | -25.4°C | -1.0% | -1.0hPa | 0V | 00:00:00 | 00:00:00 | 00:00:00 | |
| DB0ND-19 | 2026-09-01 07:55:19 | 47.16232 | 4.15974 | 79° | 69km/h | 7798m | -2.6m/s | -26.2°C | -1.0% | -1.0hPa | 0V | 00:00:00 | 00:00:00 | 00:00:00 | |
| DB0ND-19 | 2026-09-01 07:54:48 | 47.16138 | 4.15132 | 80° | 71km/h | 7886m | -2.7m/s | -27.0°C | -1.0% | -1.0hPa | 0V | 00:00:00 | 00:00:00 | 00:00:00 | |
| DB0ND-19 | 2026-09-01 07:54:17 | 47.16065 | 4.14317 | 82° | 73km/h | 7965m | -2.8m/s | -27.8°C | -1.0% | -1.0hPa | 0V | 00:00:00 | 00:00:00 | 00:00:00 | |
| DB0UT-7 | 2026-09-01 07:54:00 | 47.16030 | 4.13871 | 86° | 78km/h | 8012m | -2.3m/s | 0°C | 0% | 0hPa | 0V | 00:00:00 | 00:00:00 | 00:00:00 | |
| DB0ND-19 | 2026-09-01 07:53:46 | 47.16004 | 4.13442 | 84° | 75km/h | 8050m | -2.7m/s | -28.4°C | -1.0% | -1.0hPa | 0V | 00:00:00 | 00:00:00 | 00:00:00 | |
| DB0ND-19 | 2026-09-01 07:53:15 | 47.15954 | 4.12555 | 85° | 77km/h | 8137m | -2.9m/s | -29.2°C | -1.0% | -1.0hPa | 0V | 00:00:00 | 00:00:00 | 00:00:00 | |
| DB0UT-7 | 2026-09-01 07:52:39 | 47.15922 | 4.11540 | 88° | 80km/h | 8237m | -2.8m/s | 0°C | 0% | 0hPa | 0V | 00:00:00 | 00:00:00 | 00:00:00 | |
| DB0UT-7 | 2026-09-01 07:52:09 | 47.15908 | 4.10652 | 91° | 78km/h | 8322m | -2.8m/s | 0°C | 0% | 0hPa | 0V | 00:00:00 | 00:00:00 | 00:00:00 | |
| DB0UT-7 | 2026-09-01 07:51:27 | 47.15899 | 4.09425 | 88° | 78km/h | 8449m | -2.9m/s | 0°C | 0% | 0hPa | 0V | 00:00:00 | 00:00:00 | 00:00:00 | |
| DB0ND-19 | 2026-09-01 07:51:11 | 47.15881 | 4.08939 | 84° | 78km/h | 8486m | -3.1m/s | -32.1°C | -1.0% | -1.0hPa | 0V | 00:00:00 | 00:00:00 | 00:00:00 | |
| DB0UT-7 | 2026-09-01 07:50:57 | 47.15863 | 4.08560 | 86° | 80km/h | 8527m | -2.8m/s | 0°C | 0% | 0hPa | 0V | 00:00:00 | 00:00:00 | 00:00:00 | |
| DB0UT-7 | 2026-09-01 07:50:27 | 47.15840 | 4.07664 | 91° | 78km/h | 8614m | -2.9m/s | 0°C | 0% | 0hPa | 0V | 00:00:00 | 00:00:00 | 00:00:00 | |
| DB0ND-19 | 2026-09-01 07:50:09 | 47.15825 | 4.07099 | 85° | 80km/h | 8665m | -3.0m/s | -33.1°C | -1.0% | -1.0hPa | 0V | 00:00:00 | 00:00:00 | 00:00:00 | |
| DB0UT-7 | 2026-09-01 07:49:47 | 47.15803 | 4.06443 | 87° | 84km/h | 8726m | -2.7m/s | 0°C | 0% | 0hPa | 0V | 00:00:00 | 00:00:00 | 00:00:00 | |
| DB0ND-19 | 2026-09-01 07:49:38 | 47.15789 | 4.06101 | 88° | 82km/h | 8758m | -2.8m/s | -33.7°C | -1.0% | -1.0hPa | 0V | 00:00:00 | 00:00:00 | 00:00:00 | |
| DB0UT-7 | 2026-09-01 07:49:15 | 47.15760 | 4.05448 | 86° | 82km/h | 8822m | -2.9m/s | 0°C | 0% | 0hPa | 0V | 00:00:00 | 00:00:00 | 00:00:00 | |
| DB0ND-19 | 2026-09-01 07:49:07 | 47.15751 | 4.05172 | 85° | 80km/h | 8846m | -2.9m/s | -34.3°C | -1.0% | -1.0hPa | 0V | 00:00:00 | 00:00:00 | 00:00:00 | |
| DB0UT-7 | 2026-09-01 07:48:45 | 47.15721 | 4.04540 | 89° | 82km/h | 8911m | -2.9m/s | 0°C | 0% | 0hPa | 0V | 00:00:00 | 00:00:00 | 00:00:00 | |
| DB0ND-19 | 2026-09-01 07:48:36 | 47.15705 | 4.04242 | 86° | 80km/h | 8937m | -3.8m/s | -34.8°C | -1.0% | -1.0hPa | 0V | 00:00:00 | 00:00:00 | 00:00:00 | |
| DB0ND-19 | 2026-09-01 07:48:05 | 47.15661 | 4.03322 | 84° | 78km/h | 9031m | -2.9m/s | -35.8°C | -1.0% | -1.0hPa | 0V | 00:00:00 | 00:00:00 | 00:00:00 | |
| DB0UT-7 | 2026-09-01 07:47:32 | 47.15606 | 4.02358 | 87° | 84km/h | 9127m | -2.9m/s | 0°C | 0% | 0hPa | 0V | 00:00:00 | 00:00:00 | 00:00:00 | |
| DB0UT-7 | 2026-09-01 07:47:02 | 47.15560 | 4.01436 | 86° | 84km/h | 9214m | -2.9m/s | 0°C | 0% | 0hPa | 0V | 00:00:00 | 00:00:00 | 00:00:00 | |
| DB0ND-19 | 2026-09-01 07:46:31 | 47.15524 | 4.00459 | 87° | 86km/h | 9299m | -2.9m/s | -38.1°C | -1.0% | -1.0hPa | 0V | 00:00:00 | 00:00:00 | 00:00:00 | |
| DB0UT-7 | 2026-09-01 07:45:47 | 47.15502 | 3.99072 | 89° | 88km/h | 9425m | -2.6m/s | 0°C | 0% | 0hPa | 0V | 00:00:00 | 00:00:00 | 00:00:00 | |
| DB0UT-7 | 2026-09-01 07:45:17 | 47.15481 | 3.98103 | 90° | 89km/h | 9507m | -2.6m/s | 0°C | 0% | 0hPa | 0V | 00:00:00 | 00:00:00 | 00:00:00 | |
| DB0ND-19 | 2026-09-01 07:44:58 | 47.15478 | 3.97416 | 87° | 88km/h | 9559m | -2.6m/s | -40.3°C | -1.0% | -1.0hPa | 0V | 00:00:00 | 00:00:00 | 00:00:00 | |
| DB0UT-7 | 2026-09-01 07:44:32 | 47.15477 | 3.96614 | 89° | 91km/h | 9650m | -2.9m/s | 0°C | 0% | 0hPa | 0V | 00:00:00 | 00:00:00 | 00:00:00 | |
| DB0ND-19 | 2026-09-01 07:44:27 | 47.15472 | 3.96416 | 88° | 93km/h | 9639m | -2.8m/s | -40.8°C | -1.0% | -1.0hPa | 0V | 00:00:00 | 00:00:00 | 00:00:00 | |
| DB0UT-7 | 2026-09-01 07:43:57 | 47.15457 | 3.95437 | 89° | 91km/h | 9724m | -2.7m/s | 0°C | 0% | 0hPa | 0V | 00:00:00 | 00:00:00 | 00:00:00 | |
| DB0ND-19 | 2026-09-01 07:43:56 | 47.15455 | 3.95370 | 86° | 89km/h | 9727m | -3.1m/s | -41.6°C | -1.0% | -1.0hPa | 0V | 00:00:00 | 00:00:00 | 00:00:00 | |
| DB0UT-7 | 2026-09-01 07:43:27 | 47.15419 | 3.94420 | 83° | 91km/h | 9823m | -2.6m/s | 0°C | 0% | 0hPa | 0V | 00:00:00 | 00:00:00 | 00:00:00 | |
| DB0ND-19 | 2026-09-01 07:43:25 | 47.15410 | 3.94318 | 83° | 95km/h | 9815m | -2.9m/s | -42.1°C | -1.0% | -1.0hPa | 0V | 00:00:00 | 00:00:00 | 00:00:00 | |
| DB0ND-19 | 2026-09-01 07:42:54 | 47.15342 | 3.93267 | 83° | 89km/h | 9903m | -3.1m/s | -42.8°C | -1.0% | -1.0hPa | 0V | 00:00:00 | 00:00:00 | 00:00:00 | |
| DB0UT-7 | 2026-09-01 07:42:15 | 47.15227 | 3.91975 | 81° | 93km/h | 10019m | -2.9m/s | 0°C | 0% | 0hPa | 0V | 00:00:00 | 00:00:00 | 00:00:00 | |
| DB0UT-7 | 2026-09-01 07:41:45 | 47.15134 | 3.90947 | 85° | 95km/h | 10107m | -2.8m/s | 0°C | 0% | 0hPa | 0V | 00:00:00 | 00:00:00 | 00:00:00 | |
| DB0UT-7 | 2026-09-01 07:41:14 | 47.15070 | 3.89868 | 86° | 93km/h | 10221m | -2.9m/s | 0°C | 0% | 0hPa | 0V | 00:00:00 | 00:00:00 | 00:00:00 | |
| DB0UT-7 | 2026-09-01 07:40:41 | 47.14992 | 3.88734 | 84° | 93km/h | 10299m | -2.8m/s | 0°C | 0% | 0hPa | 0V | 00:00:00 | 00:00:00 | 00:00:00 | |
| DB0UT-7 | 2026-09-01 07:40:11 | 47.14926 | 3.87703 | 85° | 93km/h | 10390m | -3.2m/s | 0°C | 0% | 0hPa | 0V | 00:00:00 | 00:00:00 | 00:00:00 | |
| DB0ND-19 | 2026-09-01 07:39:48 | 47.14875 | 3.86876 | 83° | 93km/h | 10459m | -3.3m/s | -47.7°C | -1.0% | -1.0hPa | 0V | 00:00:00 | 00:00:00 | 00:00:00 | |
| DB0ND-19 | 2026-09-01 07:39:17 | 47.14811 | 3.85812 | 84° | 93km/h | 10557m | -3.3m/s | -48.6°C | -1.0% | -1.0hPa | 0V | 00:00:00 | 00:00:00 | 00:00:00 | |
| DB0UT-7 | 2026-09-01 07:38:57 | 47.14770 | 3.85155 | 85° | 95km/h | 10621m | -3.2m/s | 0°C | 0% | 0hPa | 0V | 00:00:00 | 00:00:00 | 00:00:00 | |
| DB0ND-19 | 2026-09-01 07:38:15 | 47.14678 | 3.83611 | 85° | 97km/h | 10750m | -3.0m/s | -50.3°C | -1.0% | -1.0hPa | 0V | 00:00:00 | 00:00:00 | 00:00:00 | |
| DB0ND-19 | 2026-09-01 07:37:44 | 47.14624 | 3.82553 | 87° | 95km/h | 10837m | -3.0m/s | -51.2°C | -1.0% | -1.0hPa | 0V | 00:00:00 | 00:00:00 | 00:00:00 | |
| DB0UT-7 | 2026-09-01 07:37:18 | 47.14605 | 3.81661 | 90° | 95km/h | 10926m | -3.6m/s | 0°C | 0% | 0hPa | 0V | 00:00:00 | 00:00:00 | 00:00:00 | |
| DB0ND-19 | 2026-09-01 07:37:13 | 47.14601 | 3.81448 | 88° | 97km/h | 10942m | -3.5m/s | -52.1°C | -1.0% | -1.0hPa | 0V | 00:00:00 | 00:00:00 | 00:00:00 | |
| DB0UT-7 | 2026-09-01 07:36:48 | 47.14598 | 3.80612 | 89° | 93km/h | 11027m | -3.4m/s | 0°C | 0% | 0hPa | 0V | 00:00:00 | 00:00:00 | 00:00:00 | |
| DB0ND-19 | 2026-09-01 07:36:42 | 47.14598 | 3.80363 | 91° | 93km/h | 11047m | -3.7m/s | -53.0°C | -1.0% | -1.0hPa | 0V | 00:00:00 | 00:00:00 | 00:00:00 | |
| DB0UT-7 | 2026-09-01 07:36:18 | 47.14596 | 3.79580 | 89° | 93km/h | 11127m | -2.8m/s | 0°C | 0% | 0hPa | 0V | 00:00:00 | 00:00:00 | 00:00:00 | |
| DB0ND-19 | 2026-09-01 07:36:11 | 47.14592 | 3.79313 | 91° | 88km/h | 11150m | -3.4m/s | -53.5°C | -1.0% | -1.0hPa | 0V | 00:00:00 | 00:00:00 | 00:00:00 | |
| DB0UT-7 | 2026-09-01 07:35:48 | 47.14597 | 3.78545 | 89° | 95km/h | 11222m | -3.8m/s | 0°C | 0% | 0hPa | 0V | 00:00:00 | 00:00:00 | 00:00:00 | |
| DB0ND-19 | 2026-09-01 07:35:40 | 47.14609 | 3.78196 | 94° | 95km/h | 11251m | -3.1m/s | -54.3°C | -1.0% | -1.0hPa | 0V | 00:00:00 | 00:00:00 | 00:00:00 | |
| DB0UT-7 | 2026-09-01 07:35:18 | 47.14656 | 3.77489 | 98° | 99km/h | 11318m | -2.9m/s | 0°C | 0% | 0hPa | 0V | 00:00:00 | 00:00:00 | 00:00:00 | |
| DB0ND-19 | 2026-09-01 07:35:09 | 47.14685 | 3.77128 | 98° | 93km/h | 11345m | -3.3m/s | -55.0°C | -1.0% | -1.0hPa | 0V | 00:00:00 | 00:00:00 | 00:00:00 | |
| DB0UT-7 | 2026-09-01 07:34:48 | 47.14749 | 3.76402 | 99° | 99km/h | 11410m | -3.2m/s | 0°C | 0% | 0hPa | 0V | 00:00:00 | 00:00:00 | 00:00:00 | |
| DB0ND-19 | 2026-09-01 07:34:38 | 47.14788 | 3.76002 | 97° | 100km/h | 11442m | -2.8m/s | -55.9°C | -1.0% | -1.0hPa | 0V | 00:00:00 | 00:00:00 | 00:00:00 | |
| DB0UT-7 | 2026-09-01 07:34:18 | 47.14855 | 3.75321 | 100° | 97km/h | 11504m | -3.2m/s | 0°C | 0% | 0hPa | 0V | 00:00:00 | 00:00:00 | 00:00:00 | |
| DB0ND-19 | 2026-09-01 07:34:07 | 47.14899 | 3.74896 | 99° | 93km/h | 11538m | -3.3m/s | -56.6°C | -1.0% | -1.0hPa | 0V | 00:00:00 | 00:00:00 | 00:00:00 | |
| DB0UT-7 | 2026-09-01 07:33:45 | 47.14955 | 3.74151 | 99° | 91km/h | 11606m | -2.0m/s | 0°C | 0% | 0hPa | 0V | 00:00:00 | 00:00:00 | 00:00:00 | |
| DB0ND-19 | 2026-09-01 07:33:36 | 47.14968 | 3.73821 | 90° | 100km/h | 11640m | -4.2m/s | -57.1°C | -1.0% | -1.0hPa | 0V | 00:00:00 | 00:00:00 | 00:00:00 | |
| DB0UT-7 | 2026-09-01 07:33:15 | 47.14988 | 3.73149 | 97° | 91km/h | 11734m | -3.0m/s | 0°C | 0% | 0hPa | 0V | 00:00:00 | 00:00:00 | 00:00:00 | |
| DB0ND-19 | 2026-09-01 07:33:05 | 47.14986 | 3.72742 | 93° | 91km/h | 11754m | -3.5m/s | -58.1°C | -1.0% | -1.0hPa | 0V | 00:00:00 | 00:00:00 | 00:00:00 | |
| DB0UT-7 | 2026-09-01 07:32:44 | 47.14977 | 3.72104 | 84° | 97km/h | 11824m | -3.5m/s | 0°C | 0% | 0hPa | 0V | 00:00:00 | 00:00:00 | 00:00:00 | |
| DB0ND-19 | 2026-09-01 07:32:34 | 47.14954 | 3.71714 | 85° | 97km/h | 11859m | -3.5m/s | -59.0°C | -1.0% | -1.0hPa | 0V | 00:00:00 | 00:00:00 | 00:00:00 | |
| DB0UT-7 | 2026-09-01 07:32:14 | 47.14923 | 3.71030 | 86° | 102km/h | 11929m | -3.4m/s | 0°C | 0% | 0hPa | 0V | 00:00:00 | 00:00:00 | 00:00:00 | |
| DB0ND-19 | 2026-09-01 07:32:02 | 47.14902 | 3.70574 | 87° | 100km/h | 11968m | -3.7m/s | -59.4°C | -1.0% | -1.0hPa | 0V | 00:00:00 | 00:00:00 | 00:00:00 | |
| DB0UT-7 | 2026-09-01 07:31:44 | 47.14884 | 3.69895 | 90° | 91km/h | 12036m | -3.4m/s | 0°C | 0% | 0hPa | 0V | 00:00:00 | 00:00:00 | 00:00:00 | |
| DB0ND-19 | 2026-09-01 07:31:31 | 47.14883 | 3.69437 | 89° | 91km/h | 12080m | -3.7m/s | -59.3°C | -1.0% | -1.0hPa | 0V | 00:00:00 | 00:00:00 | 00:00:00 | |
| DB0UT-7 | 2026-09-01 07:31:14 | 47.14886 | 3.68876 | 91° | 82km/h | 12149m | -3.9m/s | 0°C | 0% | 0hPa | 0V | 00:00:00 | 00:00:00 | 00:00:00 | |
| DB0UT-7 | 2026-09-01 07:30:44 | 47.14856 | 3.67955 | 84° | 78km/h | 12269m | -3.7m/s | 0°C | 0% | 0hPa | 0V | 00:00:00 | 00:00:00 | 00:00:00 | |
| DB0UT-7 | 2026-09-01 07:30:14 | 47.14777 | 3.67092 | 80° | 84km/h | 12377m | -3.7m/s | 0°C | 0% | 0hPa | 0V | 00:00:00 | 00:00:00 | 00:00:00 | |
| DB0UT-7 | 2026-09-01 07:29:44 | 47.14636 | 3.66176 | 77° | 84km/h | 12492m | -3.6m/s | 0°C | 0% | 0hPa | 0V | 00:00:00 | 00:00:00 | 00:00:00 | |
| DB0UT-7 | 2026-09-01 07:29:14 | 47.14469 | 3.65282 | 76° | 88km/h | 12604m | -3.6m/s | 0°C | 0% | 0hPa | 0V | 00:00:00 | 00:00:00 | 00:00:00 | |
| DB0UT-7 | 2026-09-01 07:28:44 | 47.14293 | 3.64345 | 72° | 88km/h | 12720m | -4.0m/s | 0°C | 0% | 0hPa | 0V | 00:00:00 | 00:00:00 | 00:00:00 | |
| DB0UT-7 | 2026-09-01 07:28:14 | 47.14088 | 3.63417 | 74° | 88km/h | 12838m | -3.8m/s | 0°C | 0% | 0hPa | 0V | 00:00:00 | 00:00:00 | 00:00:00 | |
| DB0UT-7 | 2026-09-01 07:27:44 | 47.13923 | 3.62480 | 78° | 91km/h | 12957m | -3.6m/s | 0°C | 0% | 0hPa | 0V | 00:00:00 | 00:00:00 | 00:00:00 | |
| DB0UT-7 | 2026-09-01 07:27:14 | 47.13773 | 3.61492 | 80° | 86km/h | 13076m | -3.6m/s | 0°C | 0% | 0hPa | 0V | 00:00:00 | 00:00:00 | 00:00:00 | |
| DB0UT-7 | 2026-09-01 07:26:44 | 47.13686 | 3.60555 | 80° | 82km/h | 13198m | -4.2m/s | 0°C | 0% | 0hPa | 0V | 00:00:00 | 00:00:00 | 00:00:00 | |
| DB0UT-7 | 2026-09-01 07:26:14 | 47.13529 | 3.59678 | 74° | 80km/h | 13323m | -3.7m/s | 0°C | 0% | 0hPa | 0V | 00:00:00 | 00:00:00 | 00:00:00 | |
| DB0UT-7 | 2026-09-01 07:25:44 | 47.13365 | 3.58815 | 80° | 80km/h | 13449m | -4.5m/s | 0°C | 0% | 0hPa | 0V | 00:00:00 | 00:00:00 | 00:00:00 | |
| DB0UT-7 | 2026-09-01 07:25:14 | 47.13220 | 3.57946 | 75° | 82km/h | 13574m | -3.8m/s | 0°C | 0% | 0hPa | 0V | 00:00:00 | 00:00:00 | 00:00:00 | |
| DB0UT-7 | 2026-09-01 07:24:44 | 47.13049 | 3.57064 | 74° | 82km/h | 13703m | -4.4m/s | 0°C | 0% | 0hPa | 0V | 00:00:00 | 00:00:00 | 00:00:00 | |
| DB0UT-7 | 2026-09-01 07:24:14 | 47.12919 | 3.56167 | 85° | 82km/h | 13833m | -4.0m/s | 0°C | 0% | 0hPa | 0V | 00:00:00 | 00:00:00 | 00:00:00 | |
| DB0ND-19 | 2026-09-01 07:23:46 | 47.12879 | 3.55285 | 87° | 82km/h | 13957m | -4.6m/s | -55.2°C | -1.0% | -1.0hPa | 0V | 00:00:00 | 00:00:00 | 00:00:00 | |
| DB0UT-7 | 2026-09-01 07:23:14 | 47.12882 | 3.54339 | 90° | 75km/h | 14098m | -4.4m/s | 0°C | 0% | 0hPa | 0V | 00:00:00 | 00:00:00 | 00:00:00 | |
| DB0UT-7 | 2026-09-01 07:22:44 | 47.12894 | 3.53514 | 93° | 62km/h | 14234m | -4.3m/s | 0°C | 0% | 0hPa | 0V | 00:00:00 | 00:00:00 | 00:00:00 | |
| DB0UT-7 | 2026-09-01 07:22:14 | 47.12864 | 3.52834 | 81° | 64km/h | 14371m | -4.6m/s | 0°C | 0% | 0hPa | 0V | 00:00:00 | 00:00:00 | 00:00:00 | |
| DB0ND-19 | 2026-09-01 07:22:13 | 47.12858 | 3.52790 | 78° | 60km/h | 14376m | -4.7m/s | -54.7°C | -1.0% | -1.0hPa | 0V | 00:00:00 | 00:00:00 | 00:00:00 | |
| DB0UT-7 | 2026-09-01 07:21:44 | 47.12716 | 3.52165 | 67° | 73km/h | 14511m | -4.7m/s | 0°C | 0% | 0hPa | 0V | 00:00:00 | 00:00:00 | 00:00:00 | |
| DB0ND-19 | 2026-09-01 07:21:42 | 47.12688 | 3.52074 | 65° | 68km/h | 14525m | -4.7m/s | -55.4°C | -1.0% | -1.0hPa | 0V | 00:00:00 | 00:00:00 | 00:00:00 | |
| DB0UT-7 | 2026-09-01 07:21:14 | 47.12481 | 3.51419 | 68° | 73km/h | 14653m | -5.0m/s | 0°C | 0% | 0hPa | 0V | 00:00:00 | 00:00:00 | 00:00:00 | |
| DB0ND-19 | 2026-09-01 07:21:11 | 47.12451 | 3.51313 | 66° | 75km/h | 14667m | -4.6m/s | -55.5°C | -1.0% | -1.0hPa | 0V | 00:00:00 | 00:00:00 | 00:00:00 | |
| DB0UT-7 | 2026-09-01 07:20:44 | 47.12319 | 3.50654 | 80° | 62km/h | 14796m | -4.8m/s | 0°C | 0% | 0hPa | 0V | 00:00:00 | 00:00:00 | 00:00:00 | |
| DB0ND-19 | 2026-09-01 07:20:40 | 47.12305 | 3.50539 | 78° | 62km/h | 14815m | -4.7m/s | -54.9°C | -1.0% | -1.0hPa | 0V | 00:00:00 | 00:00:00 | 00:00:00 | |
| DB0UT-7 | 2026-09-01 07:20:14 | 47.12223 | 3.49984 | 75° | 66km/h | 14942m | -4.7m/s | 0°C | 0% | 0hPa | 0V | 00:00:00 | 00:00:00 | 00:00:00 | |
| DB0ND-19 | 2026-09-01 07:20:09 | 47.12198 | 3.49850 | 75° | 64km/h | 14965m | -4.8m/s | -54.7°C | -1.0% | -1.0hPa | 0V | 00:00:00 | 00:00:00 | 00:00:00 | |
| DB0UT-7 | 2026-09-01 07:19:44 | 47.12082 | 3.49277 | 74° | 73km/h | 15087m | -4.9m/s | 0°C | 0% | 0hPa | 0V | 00:00:00 | 00:00:00 | 00:00:00 | |
| DB0ND-19 | 2026-09-01 07:19:38 | 47.12045 | 3.49092 | 73° | 75km/h | 15115m | -4.8m/s | -55.9°C | -1.0% | -1.0hPa | 0V | 00:00:00 | 00:00:00 | 00:00:00 | |
| DB0UT-7 | 2026-09-01 07:19:14 | 47.11930 | 3.48499 | 76° | 66km/h | 15233m | -4.7m/s | 0°C | 0% | 0hPa | 0V | 00:00:00 | 00:00:00 | 00:00:00 | |
| DB0ND-19 | 2026-09-01 07:19:07 | 47.11891 | 3.48276 | 76° | 64km/h | 15272m | -4.7m/s | -56.2°C | -1.0% | -1.0hPa | 0V | 00:00:00 | 00:00:00 | 00:00:00 | |
| DB0UT-7 | 2026-09-01 07:18:44 | 47.11826 | 3.47785 | 83° | 66km/h | 15380m | -5.1m/s | 0°C | 0% | 0hPa | 0V | 00:00:00 | 00:00:00 | 00:00:00 | |
| DB0ND-19 | 2026-09-01 07:18:36 | 47.11809 | 3.47558 | 83° | 69km/h | 15419m | -5.1m/s | -56.2°C | -1.0% | -1.0hPa | 0V | 00:00:00 | 00:00:00 | 00:00:00 | |
| DB0UT-7 | 2026-09-01 07:18:14 | 47.11781 | 3.47051 | 87° | 60km/h | 15528m | -4.8m/s | 0°C | 0% | 0hPa | 0V | 00:00:00 | 00:00:00 | 00:00:00 | |
| DB0ND-19 | 2026-09-01 07:18:05 | 47.11770 | 3.46810 | 88° | 62km/h | 15578m | -4.8m/s | -56.4°C | -1.0% | -1.0hPa | 0V | 00:00:00 | 00:00:00 | 00:00:00 | |
| DB0UT-7 | 2026-09-01 07:17:44 | 47.11773 | 3.46383 | 93° | 55km/h | 15679m | -5.0m/s | 0°C | 0% | 0hPa | 0V | 00:00:00 | 00:00:00 | 00:00:00 | |
| DB0ND-19 | 2026-09-01 07:17:34 | 47.11772 | 3.46152 | 87° | 55km/h | 15729m | -5.1m/s | -55.7°C | -1.0% | -1.0hPa | 0V | 00:00:00 | 00:00:00 | 00:00:00 | |
| DB0UT-7 | 2026-09-01 07:17:14 | 47.11728 | 3.45781 | 76° | 57km/h | 15833m | -5.1m/s | 0°C | 0% | 0hPa | 0V | 00:00:00 | 00:00:00 | 00:00:00 | |
| DB0ND-19 | 2026-09-01 07:17:03 | 47.11680 | 3.45541 | 74° | 55km/h | 15890m | -5.2m/s | -56.5°C | -1.0% | -1.0hPa | 0V | 00:00:00 | 00:00:00 | 00:00:00 | |
| DB0UT-7 | 2026-09-01 07:16:44 | 47.11622 | 3.45177 | 83° | 55km/h | 15991m | -5.1m/s | 0°C | 0% | 0hPa | 0V | 00:00:00 | 00:00:00 | 00:00:00 | |
| DB0UT-7 | 2026-09-01 07:16:14 | 47.11588 | 3.44569 | 90° | 51km/h | 16153m | -5.6m/s | 0°C | 0% | 0hPa | 0V | 00:00:00 | 00:00:00 | 00:00:00 | |
| DB0UT-7 | 2026-09-01 07:15:44 | 47.11597 | 3.44004 | 94° | 51km/h | 16320m | -5.5m/s | 0°C | 0% | 0hPa | 0V | 00:00:00 | 00:00:00 | 00:00:00 | |
| DB0UT-7 | 2026-09-01 07:15:14 | 47.11603 | 3.43440 | 91° | 53km/h | 16492m | -5.8m/s | 0°C | 0% | 0hPa | 0V | 00:00:00 | 00:00:00 | 00:00:00 | |
| DB0UT-7 | 2026-09-01 07:14:44 | 47.11582 | 3.42859 | 89° | 49km/h | 16669m | -5.7m/s | 0°C | 0% | 0hPa | 0V | 00:00:00 | 00:00:00 | 00:00:00 | |
| DB0UT-7 | 2026-09-01 07:14:14 | 47.11563 | 3.42322 | 89° | 46km/h | 16848m | -6.0m/s | 0°C | 0% | 0hPa | 0V | 00:00:00 | 00:00:00 | 00:00:00 | |
| DB0UT-7 | 2026-09-01 07:13:44 | 47.11518 | 3.41811 | 81° | 60km/h | 17028m | -6.0m/s | 0°C | 0% | 0hPa | 0V | 00:00:00 | 00:00:00 | 00:00:00 | |
| DB0UT-7 | 2026-09-01 07:13:14 | 47.11460 | 3.41146 | 90° | 60km/h | 17210m | -5.9m/s | 0°C | 0% | 0hPa | 0V | 00:00:00 | 00:00:00 | 00:00:00 | |
| DB0UT-7 | 2026-09-01 07:12:44 | 47.11493 | 3.40481 | 104° | 49km/h | 17389m | -5.6m/s | 0°C | 0% | 0hPa | 0V | 00:00:00 | 00:00:00 | 00:00:00 | |
| DB0UT-7 | 2026-09-01 07:12:14 | 47.11586 | 3.39955 | 98° | 42km/h | 17571m | -6.1m/s | 0°C | 0% | 0hPa | 0V | 00:00:00 | 00:00:00 | 00:00:00 | |
| DB0UT-7 | 2026-09-01 07:11:44 | 47.11589 | 3.39489 | 84° | 47km/h | 17756m | -6.5m/s | 0°C | 0% | 0hPa | 0V | 00:00:00 | 00:00:00 | 00:00:00 | |
| DB0UT-7 | 2026-09-01 07:11:14 | 47.11591 | 3.38975 | 107° | 38km/h | 17950m | -5.8m/s | 0°C | 0% | 0hPa | 0V | 00:00:00 | 00:00:00 | 00:00:00 | |
| DB0UT-7 | 2026-09-01 07:10:44 | 47.11682 | 3.38586 | 108° | 42km/h | 18042m | 4.4m/s | 0°C | 0% | 0hPa | 0V | 00:00:00 | 00:00:00 | 00:00:00 | |
| DB0UT-7 | 2026-09-01 07:10:14 | 47.11749 | 3.38138 | 102° | 46km/h | 17914m | 4.2m/s | 0°C | 0% | 0hPa | 0V | 00:00:00 | 00:00:00 | 00:00:00 | |
| DB0UT-7 | 2026-09-01 07:09:44 | 47.11753 | 3.37630 | 87° | 40km/h | 17785m | 3.2m/s | 0°C | 0% | 0hPa | 0V | 00:00:00 | 00:00:00 | 00:00:00 | |
| DB0UT-7 | 2026-09-01 07:09:14 | 47.11731 | 3.37181 | 90° | 40km/h | 17656m | 4.1m/s | 0°C | 0% | 0hPa | 0V | 00:00:00 | 00:00:00 | 00:00:00 | |
| DB0UT-7 | 2026-09-01 07:08:44 | 47.11757 | 3.36740 | 110° | 51km/h | 17523m | 5.2m/s | 0°C | 0% | 0hPa | 0V | 00:00:00 | 00:00:00 | 00:00:00 | |
| DB0UT-7 | 2026-09-01 07:08:14 | 47.11861 | 3.36196 | 101° | 58km/h | 17387m | 5.3m/s | 0°C | 0% | 0hPa | 0V | 00:00:00 | 00:00:00 | 00:00:00 | |
| DB0UT-7 | 2026-09-01 07:07:44 | 47.11912 | 3.35556 | 100° | 60km/h | 17253m | 4.6m/s | 0°C | 0% | 0hPa | 0V | 00:00:00 | 00:00:00 | 00:00:00 | |
| DB0UT-7 | 2026-09-01 07:07:14 | 47.11901 | 3.34886 | 84° | 58km/h | 17115m | 4.3m/s | 0°C | 0% | 0hPa | 0V | 00:00:00 | 00:00:00 | 00:00:00 | |
| DB0ND-19 | 2026-09-01 07:07:13 | 47.11897 | 3.34843 | 80° | 58km/h | 17111m | 4.7m/s | -56.0°C | -1.0% | -1.0hPa | 0V | 00:00:00 | 00:00:00 | 00:00:00 | |
| DB0UT-7 | 2026-09-01 07:06:44 | 47.11817 | 3.34258 | 80° | 46km/h | 16981m | 4.3m/s | 0°C | 0% | 0hPa | 0V | 00:00:00 | 00:00:00 | 00:00:00 | |
| DB0ND-19 | 2026-09-01 07:06:42 | 47.11807 | 3.34203 | 75° | 53km/h | 16971m | 4.5m/s | -56.3°C | -1.0% | -1.0hPa | 0V | 00:00:00 | 00:00:00 | 00:00:00 | |
| DB0UT-7 | 2026-09-01 07:06:14 | 47.11756 | 3.33754 | 85° | 47km/h | 16848m | 4.0m/s | 0°C | 0% | 0hPa | 0V | 00:00:00 | 00:00:00 | 00:00:00 | |
| DB0ND-19 | 2026-09-01 07:06:11 | 47.11751 | 3.33693 | 84° | 42km/h | 16834m | 5.2m/s | -56.7°C | -1.0% | -1.0hPa | 0V | 00:00:00 | 00:00:00 | 00:00:00 | |
| DB0UT-7 | 2026-09-01 07:05:44 | 47.11734 | 3.33232 | 87° | 51km/h | 16717m | 4.3m/s | 0°C | 0% | 0hPa | 0V | 00:00:00 | 00:00:00 | 00:00:00 | |
| DB0UT-7 | 2026-09-01 07:05:14 | 47.11704 | 3.32673 | 87° | 55km/h | 16588m | 4.2m/s | 0°C | 0% | 0hPa | 0V | 00:00:00 | 00:00:00 | 00:00:00 | |
| DB0UT-7 | 2026-09-01 07:04:44 | 47.11689 | 3.32056 | 94° | 49km/h | 16462m | 4.3m/s | 0°C | 0% | 0hPa | 0V | 00:00:00 | 00:00:00 | 00:00:00 | |
| DB0ND-19 | 2026-09-01 07:04:38 | 47.11690 | 3.31829 | 95° | 53km/h | 16415m | 4.2m/s | -57.2°C | -1.0% | -1.0hPa | 0V | 00:00:00 | 00:00:00 | 00:00:00 | |
| DB0UT-7 | 2026-09-01 07:04:14 | 47.11699 | 3.31513 | 95° | 55km/h | 16332m | 3.9m/s | 0°C | 0% | 0hPa | 0V | 00:00:00 | 00:00:00 | 00:00:00 | |
| DB0ND-19 | 2026-09-01 07:04:07 | 47.11705 | 3.31361 | 85° | 46km/h | 16300m | 3.5m/s | -57.1°C | -1.0% | -1.0hPa | 0V | 00:00:00 | 00:00:00 | 00:00:00 | |
| DB0UT-7 | 2026-09-01 07:03:44 | 47.11695 | 3.30907 | 82° | 57km/h | 16198m | 4.4m/s | 0°C | 0% | 0hPa | 0V | 00:00:00 | 00:00:00 | 00:00:00 | |
| DB0ND-19 | 2026-09-01 07:03:36 | 47.11684 | 3.30722 | 88° | 60km/h | 16163m | 4.2m/s | -57.0°C | -1.0% | -1.0hPa | 0V | 00:00:00 | 00:00:00 | 00:00:00 | |
| DB0UT-7 | 2026-09-01 07:03:14 | 47.11648 | 3.30289 | 87° | 57km/h | 16064m | 4.5m/s | 0°C | 0% | 0hPa | 0V | 00:00:00 | 00:00:00 | 00:00:00 | |
| DB0ND-19 | 2026-09-01 07:03:05 | 47.11620 | 3.30092 | 87° | 58km/h | 16023m | 5.3m/s | -57.2°C | -1.0% | -1.0hPa | 0V | 00:00:00 | 00:00:00 | 00:00:00 | |
| DB0UT-7 | 2026-09-01 07:02:44 | 47.11542 | 3.29688 | 64° | 53km/h | 15930m | 5.1m/s | 0°C | 0% | 0hPa | 0V | 00:00:00 | 00:00:00 | 00:00:00 | |
| DB0ND-19 | 2026-09-01 07:02:34 | 47.11486 | 3.29458 | 71° | 57km/h | 15881m | 5.5m/s | -56.6°C | -1.0% | -1.0hPa | 0V | 00:00:00 | 00:00:00 | 00:00:00 | |
| DB0UT-7 | 2026-09-01 07:02:14 | 47.11451 | 3.29112 | 94° | 60km/h | 15781m | 5.6m/s | 0°C | 0% | 0hPa | 0V | 00:00:00 | 00:00:00 | 00:00:00 | |
| DB0ND-19 | 2026-09-01 07:02:03 | 47.11451 | 3.28849 | 88° | 62km/h | 15726m | 5.0m/s | -56.6°C | -1.0% | -1.0hPa | 0V | 00:00:00 | 00:00:00 | 00:00:00 | |
| DB0UT-7 | 2026-09-01 07:01:44 | 47.11459 | 3.28439 | 91° | 60km/h | 15637m | 3.2m/s | 0°C | 0% | 0hPa | 0V | 00:00:00 | 00:00:00 | 00:00:00 | |
| DB0UT-7 | 2026-09-01 07:01:14 | 47.11436 | 3.27762 | 88° | 66km/h | 15500m | 5.4m/s | 0°C | 0% | 0hPa | 0V | 00:00:00 | 00:00:00 | 00:00:00 | |
| DB0UT-7 | 2026-09-01 07:00:44 | 47.11375 | 3.27037 | 80° | 62km/h | 15363m | 4.6m/s | 0°C | 0% | 0hPa | 0V | 00:00:00 | 00:00:00 | 00:00:00 | |
| DB0UT-7 | 2026-09-01 07:00:14 | 47.11270 | 3.26362 | 80° | 66km/h | 15230m | 4.4m/s | 0°C | 0% | 0hPa | 0V | 00:00:00 | 00:00:00 | 00:00:00 | |
| DB0UT-7 | 2026-09-01 06:59:44 | 47.11123 | 3.25659 | 69° | 69km/h | 15098m | 4.5m/s | 0°C | 0% | 0hPa | 0V | 00:00:00 | 00:00:00 | 00:00:00 | |
| DB0UT-7 | 2026-09-01 06:59:14 | 47.10960 | 3.24924 | 69° | 66km/h | 14965m | 4.5m/s | 0°C | 0% | 0hPa | 0V | 00:00:00 | 00:00:00 | 00:00:00 | |
| DB0UT-7 | 2026-09-01 06:58:44 | 47.10812 | 3.24239 | 72° | 60km/h | 14826m | 4.9m/s | 0°C | 0% | 0hPa | 0V | 00:00:00 | 00:00:00 | 00:00:00 | |
| DB0UT-7 | 2026-09-01 06:58:14 | 47.10731 | 3.23575 | 85° | 71km/h | 14694m | 4.9m/s | 0°C | 0% | 0hPa | 0V | 00:00:00 | 00:00:00 | 00:00:00 | |
| DB0UT-7 | 2026-09-01 06:57:44 | 47.10590 | 3.22808 | 65° | 73km/h | 14561m | 5.0m/s | 0°C | 0% | 0hPa | 0V | 00:00:00 | 00:00:00 | 00:00:00 | |
| DB0UT-7 | 2026-09-01 06:57:14 | 47.10353 | 3.22082 | 75° | 64km/h | 14428m | 5.4m/s | 0°C | 0% | 0hPa | 0V | 00:00:00 | 00:00:00 | 00:00:00 | |
| DB0UT-7 | 2026-09-01 06:56:44 | 47.10217 | 3.21404 | 84° | 64km/h | 14292m | 4.9m/s | 0°C | 0% | 0hPa | 0V | 00:00:00 | 00:00:00 | 00:00:00 | |
| DB0UT-7 | 2026-09-01 06:56:14 | 47.10205 | 3.20695 | 94° | 82km/h | 14151m | 5.1m/s | 0°C | 0% | 0hPa | 0V | 00:00:00 | 00:00:00 | 00:00:00 | |
| DB0UT-7 | 2026-09-01 06:55:44 | 47.10201 | 3.19774 | 88° | 88km/h | 14017m | 3.8m/s | 0°C | 0% | 0hPa | 0V | 00:00:00 | 00:00:00 | 00:00:00 | |
| DB0UT-7 | 2026-09-01 06:55:14 | 47.10167 | 3.18801 | 89° | 86km/h | 13886m | 4.5m/s | 0°C | 0% | 0hPa | 0V | 00:00:00 | 00:00:00 | 00:00:00 | |
| DB0UT-7 | 2026-09-01 06:54:44 | 47.10089 | 3.17848 | 79° | 84km/h | 13761m | 5.0m/s | 0°C | 0% | 0hPa | 0V | 00:00:00 | 00:00:00 | 00:00:00 | |
| DB0UT-7 | 2026-09-01 06:54:14 | 47.09964 | 3.16941 | 77° | 82km/h | 13636m | 2.6m/s | 0°C | 0% | 0hPa | 0V | 00:00:00 | 00:00:00 | 00:00:00 | |
| DB0UT-7 | 2026-09-01 06:53:44 | 47.09833 | 3.16050 | 82° | 82km/h | 13510m | 3.6m/s | 0°C | 0% | 0hPa | 0V | 00:00:00 | 00:00:00 | 00:00:00 | |
| DB0UT-7 | 2026-09-01 06:53:14 | 47.09716 | 3.15154 | 74° | 84km/h | 13380m | 3.8m/s | 0°C | 0% | 0hPa | 0V | 00:00:00 | 00:00:00 | 00:00:00 | |
| DB0UT-7 | 2026-09-01 06:52:44 | 47.09546 | 3.14259 | 79° | 80km/h | 13251m | 4.1m/s | 0°C | 0% | 0hPa | 0V | 00:00:00 | 00:00:00 | 00:00:00 | |
| DB0UT-7 | 2026-09-01 06:52:14 | 47.09464 | 3.13370 | 85° | 88km/h | 13123m | 3.6m/s | 0°C | 0% | 0hPa | 0V | 00:00:00 | 00:00:00 | 00:00:00 | |
| DB0ND-19 | 2026-09-01 06:52:13 | 47.09454 | 3.13245 | 83° | 88km/h | 13110m | 5.5m/s | -57.6°C | -1.0% | -1.0hPa | 0V | 00:00:00 | 00:00:00 | 00:00:00 | |
| DB0UT-7 | 2026-09-01 06:51:44 | 47.09336 | 3.12406 | 73° | 84km/h | 12994m | 4.7m/s | 0°C | 0% | 0hPa | 0V | 00:00:00 | 00:00:00 | 00:00:00 | |
| DB0ND-19 | 2026-09-01 06:51:42 | 47.09318 | 3.12314 | 75° | 88km/h | 12985m | 4.7m/s | -57.7°C | -1.0% | -1.0hPa | 0V | 00:00:00 | 00:00:00 | 00:00:00 | |
| DB0UT-7 | 2026-09-01 06:51:14 | 47.09163 | 3.11502 | 75° | 82km/h | 12867m | 4.0m/s | 0°C | 0% | 0hPa | 0V | 00:00:00 | 00:00:00 | 00:00:00 | |
| DB0ND-19 | 2026-09-01 06:51:11 | 47.09140 | 3.11386 | 73° | 78km/h | 12856m | 4.4m/s | -57.3°C | -1.0% | -1.0hPa | 0V | 00:00:00 | 00:00:00 | 00:00:00 | |
| DB0UT-7 | 2026-09-01 06:50:44 | 47.08985 | 3.10617 | 78° | 82km/h | 12744m | 3.4m/s | 0°C | 0% | 0hPa | 0V | 00:00:00 | 00:00:00 | 00:00:00 | |
| DB0ND-19 | 2026-09-01 06:50:40 | 47.08960 | 3.10462 | 75° | 80km/h | 12728m | 3.2m/s | -58.4°C | -1.0% | -1.0hPa | 0V | 00:00:00 | 00:00:00 | 00:00:00 | |
| DB0UT-7 | 2026-09-01 06:50:14 | 47.08830 | 3.09738 | 79° | 82km/h | 12621m | 4.9m/s | 0°C | 0% | 0hPa | 0V | 00:00:00 | 00:00:00 | 00:00:00 | |
| DB0ND-19 | 2026-09-01 06:50:09 | 47.08798 | 3.09536 | 73° | 80km/h | 12596m | 4.7m/s | -59.0°C | -1.0% | -1.0hPa | 0V | 00:00:00 | 00:00:00 | 00:00:00 | |
| DB0UT-7 | 2026-09-01 06:49:44 | 47.08668 | 3.08852 | 75° | 82km/h | 12494m | 3.6m/s | 0°C | 0% | 0hPa | 0V | 00:00:00 | 00:00:00 | 00:00:00 | |
| DB0ND-19 | 2026-09-01 06:49:38 | 47.08629 | 3.08647 | 77° | 86km/h | 12470m | 3.1m/s | -59.1°C | -1.0% | -1.0hPa | 0V | 00:00:00 | 00:00:00 | 00:00:00 | |
| DB0UT-7 | 2026-09-01 06:49:14 | 47.08552 | 3.07964 | 83° | 78km/h | 12368m | 3.8m/s | 0°C | 0% | 0hPa | 0V | 00:00:00 | 00:00:00 | 00:00:00 | |
| DB0ND-19 | 2026-09-01 06:49:07 | 47.08537 | 3.07742 | 84° | 75km/h | 12340m | 3.5m/s | -59.6°C | -1.0% | -1.0hPa | 0V | 00:00:00 | 00:00:00 | 00:00:00 | |
| DB0UT-7 | 2026-09-01 06:48:44 | 47.08512 | 3.07104 | 87° | 84km/h | 12243m | 2.7m/s | 0°C | 0% | 0hPa | 0V | 00:00:00 | 00:00:00 | 00:00:00 | |
| DB0ND-19 | 2026-09-01 06:48:36 | 47.08509 | 3.06825 | 88° | 80km/h | 12211m | 4.7m/s | -59.3°C | -1.0% | -1.0hPa | 0V | 00:00:00 | 00:00:00 | 00:00:00 | |
| DB0UT-7 | 2026-09-01 06:48:14 | 47.08504 | 3.06159 | 88° | 95km/h | 12119m | 2.7m/s | 0°C | 0% | 0hPa | 0V | 00:00:00 | 00:00:00 | 00:00:00 | |
| DB0ND-19 | 2026-09-01 06:48:05 | 47.08507 | 3.05822 | 91° | 93km/h | 12082m | 3.8m/s | -59.5°C | -1.0% | -1.0hPa | 0V | 00:00:00 | 00:00:00 | 00:00:00 | |
| DB0UT-7 | 2026-09-01 06:47:44 | 47.08505 | 3.05092 | 89° | 102km/h | 11994m | 3.7m/s | 0°C | 0% | 0hPa | 0V | 00:00:00 | 00:00:00 | 00:00:00 | |
| DB0ND-19 | 2026-09-01 06:47:34 | 47.08489 | 3.04621 | 83° | 106km/h | 11947m | 5.2m/s | -59.9°C | -1.0% | -1.0hPa | 0V | 00:00:00 | 00:00:00 | 00:00:00 | |
| DB0UT-7 | 2026-09-01 06:47:14 | 47.08457 | 3.03963 | 84° | 97km/h | 11856m | 6.0m/s | 0°C | 0% | 0hPa | 0V | 00:00:00 | 00:00:00 | 00:00:00 | |
| DB0ND-19 | 2026-09-01 06:47:03 | 47.08446 | 3.03529 | 88° | 102km/h | 11805m | 5.8m/s | -58.7°C | -1.0% | -1.0hPa | 0V | 00:00:00 | 00:00:00 | 00:00:00 | |
| DB0UT-7 | 2026-09-01 06:46:44 | 47.08452 | 3.02896 | 90° | 95km/h | 11711m | 5.4m/s | 0°C | 0% | 0hPa | 0V | 00:00:00 | 00:00:00 | 00:00:00 | |
| DB0ND-19 | 2026-09-01 06:46:34 | 47.08467 | 3.02440 | 92° | 93km/h | 11659m | 4.1m/s | -57.5°C | -1.0% | -1.0hPa | 0V | 00:00:00 | 00:00:00 | 00:00:00 | |
| DB0UT-7 | 2026-09-01 06:45:45 | 47.08582 | 3.00759 | 97° | 99km/h | 11453m | 4.7m/s | 0°C | 0% | 0hPa | 0V | 00:00:00 | 00:00:00 | 00:00:00 | |
| DB0UT-7 | 2026-09-01 06:45:14 | 47.08651 | 2.99658 | 96° | 97km/h | 11325m | 4.6m/s | 0°C | 0% | 0hPa | 0V | 00:00:00 | 00:00:00 | 00:00:00 | |
| DB0UT-7 | 2026-09-01 06:44:44 | 47.08674 | 2.98593 | 89° | 89km/h | 11193m | 4.9m/s | 0°C | 0% | 0hPa | 0V | 00:00:00 | 00:00:00 | 00:00:00 | |
| DB0UT-7 | 2026-09-01 06:44:14 | 47.08640 | 2.97606 | 87° | 88km/h | 11064m | 5.5m/s | 0°C | 0% | 0hPa | 0V | 00:00:00 | 00:00:00 | 00:00:00 | |
| DB0UT-7 | 2026-09-01 06:42:44 | 47.08444 | 2.94631 | 85° | 93km/h | 10670m | 5.3m/s | 0°C | 0% | 0hPa | 0V | 00:00:00 | 00:00:00 | 00:00:00 | |
| DB0UT-7 | 2026-09-01 06:42:14 | 47.08371 | 2.93594 | 85° | 95km/h | 10544m | 3.9m/s | 0°C | 0% | 0hPa | 0V | 00:00:00 | 00:00:00 | 00:00:00 | |
| DB0UT-7 | 2026-09-01 06:41:44 | 47.08308 | 2.92551 | 83° | 93km/h | 10423m | 3.4m/s | 0°C | 0% | 0hPa | 0V | 00:00:00 | 00:00:00 | 00:00:00 | |
| DB0UT-7 | 2026-09-01 06:41:14 | 47.08225 | 2.91525 | 83° | 89km/h | 10301m | 5.4m/s | 0°C | 0% | 0hPa | 0V | 00:00:00 | 00:00:00 | 00:00:00 | |
| DB0UT-7 | 2026-09-01 06:40:44 | 47.08108 | 2.90543 | 80° | 89km/h | 10175m | 3.2m/s | 0°C | 0% | 0hPa | 0V | 00:00:00 | 00:00:00 | 00:00:00 | |
| DB0UT-7 | 2026-09-01 06:40:14 | 47.07979 | 2.89563 | 76° | 89km/h | 10054m | 4.7m/s | 0°C | 0% | 0hPa | 0V | 00:00:00 | 00:00:00 | 00:00:00 | |
| DB0UT-7 | 2026-09-01 06:39:44 | 47.07855 | 2.88587 | 82° | 91km/h | 9930m | 3.8m/s | 0°C | 0% | 0hPa | 0V | 00:00:00 | 00:00:00 | 00:00:00 | |
| DB0UT-7 | 2026-09-01 06:39:14 | 47.07766 | 2.87578 | 85° | 91km/h | 9804m | 5.1m/s | 0°C | 0% | 0hPa | 0V | 00:00:00 | 00:00:00 | 00:00:00 | |
| DB0UT-7 | 2026-09-01 06:38:44 | 47.07722 | 2.86562 | 87° | 91km/h | 9681m | 3.7m/s | 0°C | 0% | 0hPa | 0V | 00:00:00 | 00:00:00 | 00:00:00 | |
| DB0UT-7 | 2026-09-01 06:38:14 | 47.07693 | 2.85554 | 89° | 88km/h | 9560m | 4.6m/s | 0°C | 0% | 0hPa | 0V | 00:00:00 | 00:00:00 | 00:00:00 | |
| DB0UT-7 | 2026-09-01 06:37:44 | 47.07662 | 2.84575 | 86° | 86km/h | 9440m | 3.9m/s | 0°C | 0% | 0hPa | 0V | 00:00:00 | 00:00:00 | 00:00:00 | |
| DB0UT-7 | 2026-09-01 06:37:14 | 47.07634 | 2.83630 | 91° | 84km/h | 9318m | 4.6m/s | 0°C | 0% | 0hPa | 0V | 00:00:00 | 00:00:00 | 00:00:00 | |
| DB0UT-7 | 2026-09-01 06:36:44 | 47.07604 | 2.82701 | 88° | 84km/h | 9198m | 2.8m/s | 0°C | 0% | 0hPa | 0V | 00:00:00 | 00:00:00 | 00:00:00 | |
| DB0UT-7 | 2026-09-01 06:36:14 | 47.07573 | 2.81769 | 86° | 82km/h | 9075m | 4.1m/s | 0°C | 0% | 0hPa | 0V | 00:00:00 | 00:00:00 | 00:00:00 | |
| DB0UT-7 | 2026-09-01 06:35:44 | 47.07525 | 2.80862 | 85° | 86km/h | 8952m | 5.4m/s | 0°C | 0% | 0hPa | 0V | 00:00:00 | 00:00:00 | 00:00:00 | |
| DB0UT-7 | 2026-09-01 06:35:14 | 47.07458 | 2.79918 | 82° | 88km/h | 8829m | 3.3m/s | 0°C | 0% | 0hPa | 0V | 00:00:00 | 00:00:00 | 00:00:00 | |
| DB0UT-7 | 2026-09-01 06:34:44 | 47.07388 | 2.78959 | 84° | 84km/h | 8705m | 2.4m/s | 0°C | 0% | 0hPa | 0V | 00:00:00 | 00:00:00 | 00:00:00 | |
| DB0UT-7 | 2026-09-01 06:34:14 | 47.07342 | 2.78030 | 89° | 80km/h | 8583m | 4.8m/s | 0°C | 0% | 0hPa | 0V | 00:00:00 | 00:00:00 | 00:00:00 | |
| DB0UT-7 | 2026-09-01 06:33:44 | 47.07313 | 2.77137 | 89° | 82km/h | 8451m | 5.1m/s | 0°C | 0% | 0hPa | 0V | 00:00:00 | 00:00:00 | 00:00:00 |